Time;durP1;ratioP1;P1;durP2;ratioP2;P2;SDS_P1;SDS_P2;PMS_P1;PMS_P2;Temp;Humidity;BMP_temperature;BMP_pressure;BME280_temperature;BME280_humidity;BME280_pressure;Samples;Min_cycle;Max_cycle;Signal;HPM_P1;HPM_P2
2022/06/24 00:01:32;;;;;;;4.45;1.08;;;22.00;61.70;;;;;;5054711;28;20434;-61
2022/06/24 00:03:58;;;;;;;4.78;1.45;;;21.90;61.80;;;;;;5051683;28;20029;-61
2022/06/24 00:06:41;;;;;;;4.93;1.00;;;21.90;62.20;;;;;;5060151;28;20107;-61
2022/06/24 00:09:06;;;;;;;4.72;0.90;;;21.80;63.10;;;;;;5040391;28;20044;-61
2022/06/24 00:11:34;;;;;;;3.53;1.00;;;21.80;62.40;;;;;;5050279;28;20376;-61
2022/06/24 00:14:14;;;;;;;2.30;0.90;;;21.80;62.40;;;;;;5044363;28;20703;-61
2022/06/24 00:16:54;;;;;;;2.58;1.05;;;21.80;62.70;;;;;;5045843;28;20020;-62
2022/06/24 00:19:21;;;;;;;2.83;1.00;;;21.70;63.40;;;;;;5039282;28;20120;-61
2022/06/24 00:22:00;;;;;;;3.95;1.30;;;21.70;62.50;;;;;;5047809;28;20478;-60
2022/06/24 00:24:26;;;;;;;4.88;1.27;;;21.60;63.00;;;;;;5033458;28;20380;-60
2022/06/24 00:26:51;;;;;;;4.28;0.95;;;21.60;62.80;;;;;;5051818;28;20053;-61
2022/06/24 00:29:17;;;;;;;3.35;0.82;;;21.60;63.00;;;;;;5044455;28;20096;-61
2022/06/24 00:32:04;;;;;;;5.38;1.10;;;21.60;63.00;;;;;;5052665;28;20027;-61
2022/06/24 00:34:30;;;;;;;3.22;0.95;;;21.50;64.50;;;;;;5030343;28;20036;-61
2022/06/24 00:36:56;;;;;;;3.47;0.95;;;21.50;63.20;;;;;;5035684;28;20040;-60
2022/06/24 00:39:33;;;;;;;2.80;0.90;;;21.50;63.30;;;;;;5043362;28;20029;-61
2022/06/24 00:42:00;;;;;;;5.53;1.00;;;21.50;64.60;;;;;;5041535;28;20044;-60
2022/06/24 00:44:34;;;;;;;2.95;0.80;;;21.50;63.50;;;;;;5052113;28;20792;-61
2022/06/24 00:47:01;;;;;;;2.95;0.80;;;21.50;63.70;;;;;;5038399;28;20059;-61
2022/06/24 00:49:27;;;;;;;2.22;0.90;;;21.50;63.60;;;;;;5044082;28;20108;-61
2022/06/24 00:51:53;;;;;;;2.58;1.00;;;21.50;63.80;;;;;;5041996;28;20029;-61
2022/06/24 00:54:23;;;;;;;3.53;1.15;;;21.50;64.00;;;;;;5037386;28;20037;-61
2022/06/24 00:56:55;;;;;;;4.00;1.17;;;21.50;64.70;;;;;;5035715;28;20025;-62
2022/06/24 00:59:22;;;;;;;2.92;1.13;;;21.50;64.80;;;;;;5040145;28;20045;-62
2022/06/24 01:01:49;;;;;;;2.58;0.90;;;21.50;64.20;;;;;;5042831;28;20063;-61
2022/06/24 01:04:15;;;;;;;4.65;0.82;;;21.50;64.40;;;;;;5041702;28;20022;-61
2022/06/24 01:06:44;;;;;;;3.10;1.10;;;21.60;64.10;;;;;;5047165;28;20479;-61
2022/06/24 01:09:10;;;;;;;7.78;1.35;;;21.60;64.10;;;;;;5047172;28;20026;-61
2022/06/24 01:11:43;;;;;;;2.95;0.95;;;21.60;64.10;;;;;;5040414;28;20384;-62
2022/06/24 01:14:10;;;;;;;3.83;0.85;;;21.60;64.70;;;;;;5038573;28;20049;-60
2022/06/24 01:16:35;;;;;;;2.20;1.00;;;21.60;65.10;;;;;;5046945;28;20018;-62
2022/06/24 01:19:07;;;;;;;5.63;1.10;;;21.60;64.60;;;;;;5043236;28;20055;-62
2022/06/24 01:21:42;;;;;;;1.85;0.70;;;21.60;65.50;;;;;;5049937;28;20032;-61
2022/06/24 01:24:12;;;;;;;2.60;1.02;;;21.60;65.80;;;;;;5042747;28;20021;-61
2022/06/24 01:26:40;;;;;;;2.60;0.82;;;21.70;65.00;;;;;;4997091;28;20056;-61
2022/06/24 01:29:06;;;;;;;2.65;1.00;;;21.70;65.40;;;;;;5037543;28;20041;-60
2022/06/24 01:31:32;;;;;;;4.47;1.20;;;21.70;65.40;;;;;;5046672;28;20026;-61
2022/06/24 01:33:59;;;;;;;3.70;1.00;;;21.70;65.10;;;;;;5043485;28;20121;-62
2022/06/24 01:36:25;;;;;;;3.60;1.10;;;21.70;65.10;;;;;;5047747;28;20017;-62
2022/06/24 01:38:50;;;;;;;4.47;1.00;;;21.70;65.00;;;;;;5042244;28;20057;-62
2022/06/24 01:41:17;;;;;;;2.10;0.80;;;21.70;65.00;;;;;;5048229;28;20037;-62
2022/06/24 01:43:43;;;;;;;2.15;0.98;;;21.70;65.50;;;;;;5040260;28;20072;-61
2022/06/24 01:46:11;;;;;;;3.42;0.90;;;21.70;65.70;;;;;;5040582;28;20051;-60
2022/06/24 01:48:38;;;;;;;4.75;1.10;;;21.70;65.90;;;;;;5042249;28;20045;-61
2022/06/24 01:51:05;;;;;;;2.67;0.90;;;21.60;65.50;;;;;;5049333;28;20033;-62
2022/06/24 01:53:30;;;;;;;4.47;0.98;;;21.60;65.60;;;;;;5047960;28;20033;-61
2022/06/24 01:55:56;;;;;;;5.38;1.40;;;21.60;65.80;;;;;;5047194;28;20041;-62
2022/06/24 01:58:21;;;;;;;4.07;0.90;;;21.50;65.60;;;;;;5039950;28;20049;-62
2022/06/24 02:00:47;;;;;;;7.53;1.30;;;21.50;65.70;;;;;;5043733;28;20033;-61
2022/06/24 02:03:13;;;;;;;5.47;0.98;;;21.50;65.80;;;;;;5046846;28;20026;-61
2022/06/24 02:05:40;;;;;;;3.13;0.90;;;21.50;66.00;;;;;;5047378;28;20030;-62
2022/06/24 02:08:06;;;;;;;5.45;0.90;;;21.50;66.20;;;;;;5051559;28;20045;-61
2022/06/24 02:13:28;;;;;;;;;;;21.50;66.20;;;;;;5038359;28;20036;-62
2022/06/24 02:15:53;;;;;;;1.98;0.90;;;21.50;65.30;;;;;;5041725;28;19916;-63
2022/06/24 02:18:19;;;;;;;8.05;1.15;;;21.50;65.60;;;;;;5040855;28;20029;-63
2022/06/24 02:20:45;;;;;;;5.60;1.05;;;21.40;66.10;;;;;;5045858;28;20025;-63
2022/06/24 02:23:12;;;;;;;2.78;0.90;;;21.40;66.40;;;;;;5046043;28;21020;-63
2022/06/24 02:25:38;;;;;;;3.28;1.00;;;21.40;66.30;;;;;;5060244;28;20082;-62
2022/06/24 02:28:03;;;;;;;5.60;1.10;;;21.40;66.30;;;;;;5042090;28;20045;-61
2022/06/24 02:30:29;;;;;;;2.92;0.82;;;21.40;66.60;;;;;;5050430;28;20038;-62
2022/06/24 02:32:55;;;;;;;5.80;1.00;;;21.40;66.70;;;;;;5053410;28;20164;-62
2022/06/24 02:35:21;;;;;;;2.80;0.80;;;21.30;66.60;;;;;;5043021;28;20022;-61
2022/06/24 02:37:47;;;;;;;3.47;1.33;;;21.30;66.90;;;;;;5043840;28;20028;-61
2022/06/24 02:42:57;;;;;;;3.65;1.10;;;21.30;67.40;;;;;;5050383;28;20068;-62
2022/06/24 02:45:23;;;;;;;15.35;1.45;;;21.30;67.10;;;;;;5036589;28;20033;-62
2022/06/24 02:47:49;;;;;;;8.65;1.02;;;21.30;67.20;;;;;;5045895;28;20038;-61
2022/06/24 02:50:15;;;;;;;6.10;1.25;;;21.30;67.40;;;;;;5046819;28;20844;-63
2022/06/24 02:52:41;;;;;;;7.70;1.40;;;21.20;67.30;;;;;;5046132;28;20034;-61
2022/06/24 02:55:07;;;;;;;4.93;1.35;;;21.20;67.30;;;;;;5047805;28;20029;-62
2022/06/24 02:57:32;;;;;;;7.35;1.33;;;21.20;67.40;;;;;;5045177;28;20037;-63
2022/06/24 02:59:58;;;;;;;4.15;1.17;;;21.20;67.60;;;;;;5053967;28;20025;-62
2022/06/24 03:02:24;;;;;;;6.95;1.75;;;21.10;67.40;;;;;;5049537;28;20040;-62
2022/06/24 03:04:49;;;;;;;3.95;1.05;;;21.10;67.50;;;;;;5041326;28;20025;-61
2022/06/24 03:07:15;;;;;;;7.25;1.30;;;21.10;67.50;;;;;;5044590;28;20045;-63
2022/06/24 03:09:41;;;;;;;3.47;1.38;;;21.10;67.80;;;;;;5045975;28;20033;-62
2022/06/24 03:12:07;;;;;;;4.97;1.80;;;21.10;67.90;;;;;;5051022;28;20025;-63
2022/06/24 03:14:33;;;;;;;5.07;1.48;;;21.00;68.00;;;;;;5046532;28;20021;-62
2022/06/24 03:16:58;;;;;;;7.70;1.50;;;21.00;67.90;;;;;;5042918;28;20483;-63
2022/06/24 03:19:24;;;;;;;6.10;1.30;;;21.00;68.00;;;;;;5048219;28;20095;-62
2022/06/24 03:21:50;;;;;;;7.03;1.45;;;21.00;67.90;;;;;;5047533;28;20030;-65
2022/06/24 03:24:15;;;;;;;11.75;2.45;;;21.00;67.90;;;;;;5056032;28;20029;-62
2022/06/24 03:26:42;;;;;;;4.88;1.60;;;21.10;68.10;;;;;;5046748;28;20059;-62
2022/06/24 03:29:08;;;;;;;3.63;1.55;;;21.00;68.30;;;;;;5032929;28;20028;-63
2022/06/24 03:31:34;;;;;;;7.53;1.60;;;21.10;68.50;;;;;;5041992;28;20029;-63
2022/06/24 03:33:59;;;;;;;8.80;1.90;;;21.10;68.60;;;;;;5036603;28;20033;-61
2022/06/24 03:36:25;;;;;;;5.53;1.83;;;21.00;68.30;;;;;;5038950;28;20083;-61
2022/06/24 03:38:51;;;;;;;7.93;2.10;;;21.00;68.20;;;;;;5038864;28;20357;-61
2022/06/24 03:41:17;;;;;;;3.55;1.85;;;21.10;68.20;;;;;;5047233;28;20025;-62
2022/06/24 03:43:42;;;;;;;7.00;1.85;;;21.10;68.00;;;;;;5037402;28;20026;-61
2022/06/24 03:46:08;;;;;;;14.10;2.88;;;21.10;68.20;;;;;;5049869;28;20064;-62
2022/06/24 03:48:34;;;;;;;5.55;2.13;;;21.00;68.00;;;;;;5045940;28;20053;-62
2022/06/24 03:51:00;;;;;;;6.28;2.03;;;21.10;68.00;;;;;;5055733;28;20048;-62
2022/06/24 03:53:25;;;;;;;3.90;1.85;;;21.00;67.80;;;;;;5037093;28;20100;-62
2022/06/24 03:55:52;;;;;;;4.30;1.85;;;21.00;67.90;;;;;;5055881;28;20044;-62
2022/06/24 03:58:19;;;;;;;3.78;2.00;;;21.00;68.00;;;;;;5043212;28;20026;-62
2022/06/24 04:00:45;;;;;;;6.13;1.88;;;21.10;68.20;;;;;;5043587;28;20034;-62
2022/06/24 04:03:11;;;;;;;4.20;1.67;;;21.00;68.10;;;;;;5049768;28;20029;-62
2022/06/24 04:05:37;;;;;;;7.05;2.00;;;21.00;68.10;;;;;;5045078;28;20037;-61
2022/06/24 04:08:03;;;;;;;5.93;1.80;;;21.10;68.10;;;;;;5047087;28;20034;-61
2022/06/24 04:10:29;;;;;;;5.03;1.88;;;21.10;68.00;;;;;;5046077;28;20392;-61
2022/06/24 04:12:54;;;;;;;7.30;2.00;;;21.10;68.00;;;;;;5045776;28;20059;-62
2022/06/24 04:15:20;;;;;;;5.03;2.00;;;21.10;68.10;;;;;;5041732;28;20040;-62
2022/06/24 04:17:47;;;;;;;7.18;2.38;;;21.10;68.20;;;;;;5044489;28;20951;-61
2022/06/24 04:20:15;;;;;;;18.73;2.58;;;21.10;68.20;;;;;;5054321;28;20017;-60
2022/06/24 04:22:41;;;;;;;5.47;2.60;;;21.10;68.10;;;;;;5044558;28;20040;-61
2022/06/24 04:25:08;;;;;;;8.95;3.45;;;21.10;68.30;;;;;;5050977;28;20029;-61
2022/06/24 04:27:34;;;;;;;7.97;4.00;;;21.10;68.20;;;;;;5043933;28;20052;-61
2022/06/24 04:30:01;;;;;;;8.10;4.10;;;21.20;68.10;;;;;;5050421;28;20029;-63
2022/06/24 04:32:27;;;;;;;9.38;4.75;;;21.10;68.10;;;;;;5046856;28;20037;-63
2022/06/24 04:34:53;;;;;;;8.68;4.72;;;21.10;67.90;;;;;;5044342;28;20029;-62
2022/06/24 04:37:19;;;;;;;13.35;3.80;;;21.10;68.00;;;;;;5039751;28;20018;-62
2022/06/24 04:39:44;;;;;;;8.68;4.53;;;21.10;68.10;;;;;;5050307;28;20044;-62
2022/06/24 04:42:10;;;;;;;8.25;4.05;;;21.10;68.10;;;;;;5047034;28;20061;-62
2022/06/24 04:44:36;;;;;;;9.55;3.90;;;21.10;68.20;;;;;;5056763;28;20018;-61
2022/06/24 04:47:02;;;;;;;8.60;3.88;;;21.10;68.30;;;;;;5061657;28;20119;-61
2022/06/24 04:49:28;;;;;;;8.50;3.70;;;21.10;68.50;;;;;;5050160;28;20033;-61
2022/06/24 04:51:54;;;;;;;4.65;3.13;;;21.20;68.80;;;;;;5054372;28;20026;-60
2022/06/24 04:54:20;;;;;;;7.97;3.58;;;21.20;69.00;;;;;;5050358;28;20029;-61
2022/06/24 04:56:46;;;;;;;7.90;3.45;;;21.20;69.00;;;;;;5051013;28;20040;-61
2022/06/24 04:59:12;;;;;;;9.57;3.13;;;21.30;68.80;;;;;;5050752;28;20025;-61
2022/06/24 05:01:38;;;;;;;8.10;2.60;;;21.30;68.60;;;;;;5045087;28;20190;-62
2022/06/24 05:04:04;;;;;;;6.18;3.60;;;21.40;68.70;;;;;;5051647;28;20084;-61
2022/06/24 05:06:30;;;;;;;6.00;3.42;;;21.40;68.70;;;;;;5053680;28;20088;-61
2022/06/24 05:08:55;;;;;;;9.20;3.70;;;21.40;68.60;;;;;;5042672;28;20037;-61
2022/06/24 05:11:21;;;;;;;4.97;3.25;;;21.40;68.40;;;;;;5041251;28;20058;-60
2022/06/24 05:13:47;;;;;;;6.78;2.95;;;21.50;68.60;;;;;;5056343;28;20049;-60
2022/06/24 05:16:13;;;;;;;9.40;3.17;;;21.50;68.70;;;;;;5033473;28;20041;-61
2022/06/24 05:18:39;;;;;;;6.55;3.30;;;21.60;68.70;;;;;;5053100;28;20033;-61
2022/06/24 05:21:05;;;;;;;12.68;3.58;;;21.60;68.50;;;;;;5055876;28;20033;-60
2022/06/24 05:23:30;;;;;;;9.05;3.13;;;21.60;68.40;;;;;;5052271;28;20049;-61
2022/06/24 05:25:57;;;;;;;7.85;3.20;;;21.70;68.60;;;;;;5042726;28;20049;-61
2022/06/24 05:28:22;;;;;;;9.05;2.95;;;21.70;68.50;;;;;;5053592;28;20065;-62
2022/06/24 05:30:57;;;;;;;9.82;3.03;;;21.80;68.50;;;;;;5055776;28;20020;-62
2022/06/24 05:33:23;;;;;;;5.30;3.03;;;21.90;69.50;;;;;;5055586;28;20034;-61
2022/06/24 05:35:54;;;;;;;7.63;3.05;;;21.90;68.20;;;;;;5052756;28;20034;-61
2022/06/24 05:38:21;;;;;;;9.50;3.10;;;21.90;68.20;;;;;;5055805;28;20040;-62
2022/06/24 05:40:49;;;;;;;7.45;3.05;;;22.00;67.90;;;;;;5046730;28;20025;-63
2022/06/24 05:43:15;;;;;;;7.65;2.55;;;22.00;67.80;;;;;;5046591;28;20021;-62
2022/06/24 05:45:41;;;;;;;6.90;2.25;;;22.00;67.80;;;;;;5051633;28;20033;-62
2022/06/24 05:48:07;;;;;;;7.75;2.75;;;22.00;67.90;;;;;;5046329;28;20045;-62
2022/06/24 05:50:36;;;;;;;5.38;2.60;;;22.10;67.90;;;;;;5048835;28;20060;-62
2022/06/24 05:55:46;;;;;;;4.78;2.55;;;22.10;67.80;;;;;;5046623;28;20079;-63
2022/06/24 05:58:11;;;;;;;8.23;3.08;;;22.20;67.40;;;;;;5049928;28;20025;-62
2022/06/24 06:00:37;;;;;;;6.32;2.30;;;22.20;67.40;;;;;;5045547;28;20075;-61
2022/06/24 06:03:03;;;;;;;7.47;2.45;;;22.30;67.50;;;;;;5051611;28;20121;-62
2022/06/24 06:05:29;;;;;;;7.15;2.58;;;22.30;67.60;;;;;;5047110;28;20033;-62
2022/06/24 06:07:54;;;;;;;7.22;2.40;;;22.40;67.60;;;;;;5044958;28;20061;-61
2022/06/24 06:10:20;;;;;;;5.75;2.47;;;22.50;67.50;;;;;;5045557;28;20056;-61
2022/06/24 06:12:46;;;;;;;7.10;2.50;;;22.50;67.40;;;;;;5045497;28;20041;-63
2022/06/24 06:15:11;;;;;;;7.82;2.80;;;22.70;67.50;;;;;;5047002;28;20498;-61
2022/06/24 06:17:37;;;;;;;8.63;2.25;;;22.80;67.00;;;;;;5045242;28;20033;-62
2022/06/24 06:20:03;;;;;;;8.30;2.25;;;22.90;66.90;;;;;;5047043;28;20029;-62
2022/06/24 06:22:29;;;;;;;6.90;2.47;;;23.00;66.60;;;;;;5050803;28;20049;-61
2022/06/24 06:24:56;;;;;;;9.18;2.58;;;23.10;66.10;;;;;;5045329;28;20032;-62
2022/06/24 06:27:22;;;;;;;7.55;2.58;;;23.10;65.80;;;;;;5050066;28;20061;-62
2022/06/24 06:29:48;;;;;;;10.00;2.40;;;23.20;65.40;;;;;;5044344;28;20033;-62
2022/06/24 06:32:13;;;;;;;6.07;2.20;;;23.20;65.50;;;;;;5053185;28;20029;-62
2022/06/24 06:34:39;;;;;;;6.85;2.17;;;23.30;65.70;;;;;;5057147;28;20025;-61
2022/06/24 06:37:05;;;;;;;7.45;2.05;;;23.40;65.70;;;;;;5044461;28;20052;-62
2022/06/24 06:39:30;;;;;;;7.25;2.63;;;23.50;65.50;;;;;;5049228;28;20035;-62
2022/06/24 06:41:56;;;;;;;7.90;2.15;;;23.60;65.40;;;;;;5043411;28;20057;-60
2022/06/24 06:44:22;;;;;;;8.98;2.65;;;23.70;65.10;;;;;;5038827;28;20070;-62
2022/06/24 06:46:48;;;;;;;7.93;2.50;;;23.70;64.30;;;;;;5046800;28;20033;-61
2022/06/24 06:49:14;;;;;;;10.20;2.67;;;23.80;64.00;;;;;;5040953;28;20041;-61
2022/06/24 06:51:40;;;;;;;8.57;2.15;;;23.90;63.50;;;;;;5043105;28;20029;-62
2022/06/24 06:54:06;;;;;;;10.50;1.98;;;23.90;63.10;;;;;;5048662;28;20056;-60
2022/06/24 06:56:33;;;;;;;7.30;2.17;;;24.00;62.80;;;;;;5048179;28;20032;-62
2022/06/24 06:58:58;;;;;;;19.30;2.20;;;23.90;62.60;;;;;;5051417;28;20029;-61
2022/06/24 07:01:25;;;;;;;9.02;2.50;;;23.90;62.90;;;;;;5049293;28;20036;-61
2022/06/24 07:03:50;;;;;;;9.15;2.40;;;23.90;62.90;;;;;;5046909;28;20099;-61
2022/06/24 07:06:16;;;;;;;7.10;2.17;;;24.00;62.70;;;;;;5044404;28;20029;-62
2022/06/24 07:08:41;;;;;;;5.88;1.83;;;24.00;62.20;;;;;;5052569;28;20044;-63
2022/06/24 07:11:07;;;;;;;3.78;1.88;;;24.00;62.30;;;;;;5044642;28;20045;-61
2022/06/24 07:13:33;;;;;;;7.22;2.10;;;24.00;62.00;;;;;;5043015;28;20026;-61
2022/06/24 07:15:59;;;;;;;5.88;2.03;;;24.00;62.10;;;;;;5041925;28;20033;-62
2022/06/24 07:18:24;;;;;;;5.40;2.10;;;24.00;61.80;;;;;;5044781;28;20041;-61
2022/06/24 07:20:50;;;;;;;6.95;2.63;;;24.00;61.30;;;;;;5046967;28;20068;-61
2022/06/24 07:23:16;;;;;;;4.80;1.73;;;24.00;61.50;;;;;;5049600;28;20032;-61
2022/06/24 07:25:42;;;;;;;6.07;1.92;;;24.00;62.10;;;;;;5043681;28;20196;-62
2022/06/24 07:28:09;;;;;;;7.65;2.00;;;24.00;62.00;;;;;;5046755;28;20037;-61
2022/06/24 07:30:34;;;;;;;6.68;2.35;;;24.10;62.50;;;;;;5043544;28;20037;-61
2022/06/24 07:33:00;;;;;;;5.20;1.60;;;24.20;61.80;;;;;;5047079;28;20038;-63
2022/06/24 07:35:26;;;;;;;4.72;1.50;;;24.30;61.10;;;;;;5044355;28;20060;-62
2022/06/24 07:37:51;;;;;;;9.23;1.98;;;24.30;60.40;;;;;;5046937;28;20064;-62
2022/06/24 07:40:17;;;;;;;8.13;1.73;;;24.40;60.00;;;;;;5052328;28;20120;-60
2022/06/24 07:42:43;;;;;;;4.35;1.52;;;24.40;59.80;;;;;;5048463;28;20029;-61
2022/06/24 07:45:10;;;;;;;9.15;2.03;;;24.40;59.70;;;;;;5040131;28;20052;-61
2022/06/24 07:47:36;;;;;;;8.10;2.00;;;24.40;59.90;;;;;;5047503;28;20064;-61
2022/06/24 07:50:06;;;;;;;10.65;1.90;;;24.50;59.70;;;;;;5039899;28;20017;-61
2022/06/24 07:52:32;;;;;;;14.63;2.20;;;24.50;59.60;;;;;;5055197;28;20022;-62
2022/06/24 07:57:42;;;;;;;10.35;2.40;;;24.50;59.20;;;;;;5036982;28;20113;-63
2022/06/24 08:00:08;;;;;;;6.68;1.77;;;24.50;59.50;;;;;;5044258;28;20072;-62
2022/06/24 08:02:34;;;;;;;8.80;1.67;;;24.50;59.70;;;;;;5038019;28;20036;-62
2022/06/24 08:04:59;;;;;;;6.25;1.67;;;24.60;60.30;;;;;;5043646;28;20033;-61
2022/06/24 08:07:25;;;;;;;4.85;1.50;;;24.70;60.20;;;;;;5038279;28;20037;-62
2022/06/24 08:09:51;;;;;;;10.05;2.00;;;25.00;59.50;;;;;;5045712;28;20102;-61
2022/06/24 08:12:16;;;;;;;7.60;1.88;;;25.10;58.80;;;;;;5044224;28;20059;-61
2022/06/24 08:14:42;;;;;;;9.45;1.40;;;25.30;58.40;;;;;;5043139;28;20065;-62
2022/06/24 08:17:07;;;;;;;7.18;1.40;;;25.40;58.30;;;;;;5044575;28;20064;-62
2022/06/24 08:19:33;;;;;;;4.68;1.52;;;25.50;57.90;;;;;;5036741;28;20060;-62
2022/06/24 08:21:59;;;;;;;6.30;1.95;;;25.70;57.70;;;;;;5038890;28;20029;-61
2022/06/24 08:24:24;;;;;;;5.25;1.58;;;25.90;57.60;;;;;;5034894;28;20093;-63
2022/06/24 08:26:50;;;;;;;7.75;2.03;;;26.00;56.80;;;;;;4977060;28;20117;-63
2022/06/24 08:29:17;;;;;;;5.68;1.60;;;26.20;56.30;;;;;;5049597;28;20053;-62
2022/06/24 08:31:43;;;;;;;5.90;1.60;;;26.30;55.90;;;;;;5047422;28;20050;-62
2022/06/24 08:34:09;;;;;;;7.68;2.20;;;26.40;55.60;;;;;;5040954;28;20029;-62
2022/06/24 08:36:36;;;;;;;6.32;1.70;;;26.50;55.30;;;;;;5043520;28;20052;-62
2022/06/24 08:39:02;;;;;;;4.72;1.50;;;26.70;55.20;;;;;;5054530;28;20026;-62
2022/06/24 08:41:28;;;;;;;6.57;1.50;;;26.90;54.20;;;;;;5044417;28;20037;-62
2022/06/24 08:43:55;;;;;;;4.85;1.45;;;27.00;54.80;;;;;;5040709;28;20030;-63
2022/06/24 08:46:22;;;;;;;6.47;1.52;;;27.20;54.60;;;;;;5046017;28;20034;-62
2022/06/24 08:48:49;;;;;;;5.50;1.38;;;27.40;54.40;;;;;;5039670;28;20038;-62
2022/06/24 08:51:15;;;;;;;8.13;1.65;;;27.60;53.50;;;;;;5043671;28;20108;-62
2022/06/24 08:53:43;;;;;;;4.03;1.17;;;27.80;52.70;;;;;;5042826;28;20044;-61
2022/06/24 08:56:08;;;;;;;4.65;1.55;;;27.90;52.00;;;;;;5043385;28;20033;-63
2022/06/24 08:58:35;;;;;;;5.63;1.38;;;28.00;51.10;;;;;;5047346;28;20032;-62
2022/06/24 09:01:02;;;;;;;6.15;1.73;;;28.10;50.60;;;;;;5044042;28;20068;-61
2022/06/24 09:03:27;;;;;;;4.13;1.20;;;28.10;51.10;;;;;;5060404;28;20024;-61
2022/06/24 09:05:53;;;;;;;4.22;1.23;;;28.10;50.90;;;;;;5032867;28;20033;-62
2022/06/24 09:08:19;;;;;;;2.95;1.00;;;28.10;50.60;;;;;;5049783;28;20097;-61
2022/06/24 09:13:41;;;;;;;2.72;1.17;;;28.10;50.00;;;;;;5048625;28;20102;-62
2022/06/24 09:16:08;;;;;;;3.17;1.15;;;28.10;50.40;;;;;;5048061;28;20040;-62
2022/06/24 09:18:34;;;;;;;9.18;1.85;;;28.10;50.30;;;;;;5048110;28;20049;-61
2022/06/24 09:20:59;;;;;;;2.47;1.20;;;28.10;50.10;;;;;;5047062;28;20037;-63
2022/06/24 09:23:25;;;;;;;5.03;1.40;;;28.20;50.30;;;;;;5048768;28;20148;-63
2022/06/24 09:25:53;;;;;;;4.60;1.15;;;28.40;50.10;;;;;;5053480;28;20052;-62
2022/06/24 09:28:28;;;;;;;4.32;1.35;;;28.50;48.90;;;;;;4952496;28;20108;-61
2022/06/24 09:31:08;;;;;;;5.28;0.90;;;28.70;49.80;;;;;;5047048;28;20029;-62
2022/06/24 09:33:42;;;;;;;2.08;0.85;;;28.90;48.00;;;;;;5049310;28;20111;-61
2022/06/24 09:36:10;;;;;;;8.00;2.15;;;29.00;47.50;;;;;;5044252;28;20085;-61
2022/06/24 09:39:05;;;;;;;3.38;1.00;;;29.00;47.90;;;;;;5054508;28;20029;-62
2022/06/24 09:41:42;;;;;;;2.70;0.90;;;29.00;46.70;;;;;;5048620;28;20033;-62
2022/06/24 09:44:09;;;;;;;5.97;1.05;;;29.10;47.80;;;;;;5044644;28;20052;-62
2022/06/24 09:46:35;;;;;;;2.30;1.02;;;29.10;46.90;;;;;;5047451;28;20084;-63
2022/06/24 09:49:03;;;;;;;3.85;1.20;;;29.20;47.10;;;;;;5046951;28;20076;-62
2022/06/24 09:51:29;;;;;;;2.88;1.02;;;29.20;46.90;;;;;;5046524;28;20021;-63
2022/06/24 09:53:55;;;;;;;6.22;0.90;;;29.20;46.80;;;;;;5046751;28;20107;-63
2022/06/24 09:56:21;;;;;;;5.03;1.15;;;29.20;46.00;;;;;;5034596;28;20065;-61
2022/06/24 10:01:36;;;;;;;4.90;1.30;;;29.10;45.80;;;;;;5045818;28;20102;-62
2022/06/24 10:04:12;;;;;;;4.38;1.15;;;29.10;45.60;;;;;;5043242;28;20396;-61
2022/06/24 10:06:41;;;;;;;3.08;1.20;;;29.00;46.00;;;;;;5043472;28;20052;-63
2022/06/24 10:09:07;;;;;;;12.10;1.98;;;29.10;46.90;;;;;;5046548;28;20030;-63
2022/06/24 10:11:34;;;;;;;3.60;1.13;;;29.10;46.40;;;;;;5053308;28;20117;-62
2022/06/24 10:14:01;;;;;;;6.28;0.98;;;29.30;45.60;;;;;;5053182;28;20025;-61
2022/06/24 10:16:27;;;;;;;2.78;0.93;;;29.40;45.30;;;;;;5044547;28;20056;-62
2022/06/24 10:18:53;;;;;;;4.05;1.00;;;29.50;44.60;;;;;;5048208;28;20029;-61
2022/06/24 10:21:20;;;;;;;5.05;0.98;;;29.60;43.60;;;;;;5047304;28;20021;-61
2022/06/24 10:23:50;;;;;;;4.15;1.40;;;29.60;44.30;;;;;;5045122;28;20120;-62
2022/06/24 10:26:24;;;;;;;2.95;1.00;;;29.70;44.90;;;;;;5064830;28;20048;-62
2022/06/24 10:29:04;;;;;;;3.17;0.93;;;29.80;44.70;;;;;;5050059;28;20033;-62
2022/06/24 10:31:45;;;;;;;5.32;1.25;;;30.00;43.30;;;;;;5043948;28;20100;-62
2022/06/24 10:34:22;;;;;;;2.22;1.00;;;30.10;44.10;;;;;;5045289;28;20029;-63
2022/06/24 10:36:58;;;;;;;6.97;1.13;;;30.10;43.30;;;;;;5043634;28;20033;-64
2022/06/24 10:39:29;;;;;;;4.40;1.20;;;30.10;43.10;;;;;;5045615;28;20041;-61
2022/06/24 10:42:06;;;;;;;3.25;1.00;;;30.00;43.20;;;;;;5044134;28;20026;-62
2022/06/24 10:44:34;;;;;;;3.95;1.23;;;29.80;42.60;;;;;;5044690;28;20030;-61
2022/06/24 10:47:12;;;;;;;5.38;1.45;;;29.70;43.40;;;;;;5049515;28;20080;-62
2022/06/24 10:50:14;;;;;;;2.75;1.05;;;29.50;42.50;;;;;;5045140;28;20035;-61
2022/06/24 10:53:00;;;;;;;2.13;0.80;;;29.40;43.20;;;;;;5041442;28;20041;-61
2022/06/24 10:57:54;;;;;;;2.55;0.90;;;29.20;43.80;;;;;;5040766;28;20068;-61
2022/06/24 11:00:27;;;;;;;6.28;1.20;;;29.20;43.70;;;;;;5050788;28;20214;-62
2022/06/24 11:02:59;;;;;;;5.50;1.13;;;29.20;43.40;;;;;;5046253;28;20029;-61
2022/06/24 11:05:29;;;;;;;5.55;1.08;;;29.20;43.90;;;;;;5043069;28;20018;-62
2022/06/24 11:07:55;;;;;;;4.55;1.13;;;29.10;44.20;;;;;;5050671;28;20053;-61
2022/06/24 11:10:26;;;;;;;3.90;1.30;;;29.10;44.50;;;;;;5036149;28;20026;-61
2022/06/24 11:12:58;;;;;;;5.45;1.30;;;29.20;44.20;;;;;;5031538;28;20024;-61
2022/06/24 11:15:43;;;;;;;2.10;1.00;;;29.20;45.10;;;;;;5044587;28;20033;-62
2022/06/24 11:18:21;;;;;;;1.95;0.80;;;29.40;45.10;;;;;;5039046;28;20064;-61
2022/06/24 11:20:54;;;;;;;4.55;1.10;;;29.70;45.30;;;;;;5045143;28;20097;-61
2022/06/24 11:23:22;;;;;;;5.68;1.05;;;30.10;45.30;;;;;;5036974;28;20025;-62
2022/06/24 11:25:51;;;;;;;7.18;0.90;;;30.40;44.40;;;;;;4928041;28;20697;-63
2022/06/24 11:28:19;;;;;;;4.72;0.88;;;30.60;44.50;;;;;;5041730;28;20061;-62
2022/06/24 11:30:45;;;;;;;4.88;1.20;;;30.70;42.40;;;;;;5044664;28;20049;-62
2022/06/24 11:33:11;;;;;;;1.83;0.63;;;30.90;41.50;;;;;;5049949;28;20049;-61
2022/06/24 11:35:37;;;;;;;3.60;1.27;;;30.90;41.50;;;;;;5046775;28;20779;-61
2022/06/24 11:38:07;;;;;;;3.58;0.80;;;30.90;41.00;;;;;;5053035;28;20021;-62
2022/06/24 11:40:34;;;;;;;6.05;0.70;;;30.90;40.30;;;;;;5041945;28;20032;-62
2022/06/24 11:43:18;;;;;;;4.97;1.08;;;30.80;40.70;;;;;;5041506;28;20051;-63
2022/06/24 11:45:48;;;;;;;1.70;0.90;;;30.80;40.10;;;;;;5044472;28;20024;-63
2022/06/24 11:48:22;;;;;;;3.30;1.05;;;30.70;40.40;;;;;;5046545;28;20069;-62
2022/06/24 11:50:48;;;;;;;;;;;30.60;40.00;;;;;;5044066;28;20036;-62
2022/06/24 11:53:15;;;;;;;2.15;0.80;;;30.60;41.40;;;;;;5047593;28;19940;-63
2022/06/24 11:55:47;;;;;;;3.13;0.90;;;30.40;40.20;;;;;;5045953;28;20025;-62
2022/06/24 11:58:18;;;;;;;4.13;1.02;;;30.20;40.60;;;;;;5045340;28;20452;-62
2022/06/24 12:00:44;;;;;;;4.53;0.98;;;30.00;40.70;;;;;;5040441;28;20116;-63
2022/06/24 12:03:11;;;;;;;3.72;1.38;;;29.80;41.00;;;;;;5040615;28;20026;-62
2022/06/24 12:05:40;;;;;;;2.30;1.10;;;29.50;40.90;;;;;;5043650;28;20094;-62
2022/06/24 12:08:06;;;;;;;3.22;1.23;;;29.40;41.50;;;;;;5050001;28;20037;-63
2022/06/24 12:10:32;;;;;;;3.13;0.93;;;29.10;41.70;;;;;;5044589;28;20374;-62
2022/06/24 12:13:07;;;;;;;3.53;1.10;;;28.90;42.00;;;;;;5051189;28;20089;-61
2022/06/24 12:15:52;;;;;;;4.55;1.00;;;28.70;42.30;;;;;;5043638;28;20064;-61
2022/06/24 12:18:19;;;;;;;4.15;1.00;;;28.40;42.30;;;;;;5040746;28;20164;-62
2022/06/24 12:20:58;;;;;;;3.33;1.02;;;28.30;42.80;;;;;;5032509;28;20030;-63
2022/06/24 12:23:25;;;;;;;6.60;1.05;;;28.00;43.20;;;;;;5045869;28;20052;-62
2022/06/24 12:25:52;;;;;;;1.58;0.77;;;27.90;43.70;;;;;;4942022;28;20065;-62
2022/06/24 12:28:22;;;;;;;2.70;0.70;;;27.80;44.00;;;;;;5050441;28;20068;-62
2022/06/24 12:31:14;;;;;;;2.22;0.90;;;27.60;44.10;;;;;;5029955;28;20040;-63
2022/06/24 12:33:46;;;;;;;8.23;1.20;;;27.60;44.50;;;;;;5028876;28;20039;-62
2022/06/24 12:36:15;;;;;;;2.75;1.10;;;27.50;44.50;;;;;;5044488;28;20048;-62
2022/06/24 12:38:45;;;;;;;2.38;0.75;;;27.30;44.90;;;;;;5046978;28;20033;-63
2022/06/24 12:41:16;;;;;;;3.08;1.08;;;27.30;45.30;;;;;;5037378;28;20380;-63
2022/06/24 12:43:57;;;;;;;9.30;1.20;;;27.20;45.60;;;;;;5045402;28;20029;-61
2022/06/24 12:46:25;;;;;;;3.28;1.33;;;27.10;45.90;;;;;;5042884;28;20040;-62
2022/06/24 12:51:40;;;;;;;5.45;1.10;;;26.90;46.90;;;;;;5044329;28;20048;-62
2022/06/24 12:54:06;;;;;;;2.13;1.00;;;26.80;47.30;;;;;;5048419;28;20123;-62
2022/06/24 12:56:34;;;;;;;3.78;1.20;;;26.60;47.50;;;;;;5043422;28;20040;-63
2022/06/24 12:59:00;;;;;;;3.42;1.13;;;26.50;48.20;;;;;;5053353;28;20032;-63
2022/06/24 13:01:26;;;;;;;3.20;1.13;;;26.40;49.10;;;;;;5044374;28;20030;-62
2022/06/24 13:03:52;;;;;;;6.55;1.23;;;26.30;49.40;;;;;;5044739;28;20091;-62
2022/06/24 13:06:18;;;;;;;4.35;1.10;;;26.10;49.40;;;;;;5047449;28;20026;-63
2022/06/24 13:08:44;;;;;;;5.95;1.10;;;26.10;50.50;;;;;;5050712;28;20061;-64
2022/06/24 13:11:10;;;;;;;3.25;1.50;;;26.00;50.90;;;;;;5052349;28;20030;-61
2022/06/24 13:13:35;;;;;;;6.43;1.50;;;25.80;51.50;;;;;;5044844;28;20040;-62